San Antonio, Valles Caldera, New Mexico Weather observations

Data are for 10 minute period ending at time listed.
 Day   Time   Solar   Ave.   Ave.  Ave.  Vector  Max.   Baro.   Total    
  of    of     Rad.   Air    Rel.  Wind   Wind   Wind  Press.  Precip.   
Year   Day            Temp.  Hum.  Speed  Dir.   Gust                    
2016   (MST)  Kw/m2    F      %     mph   deg.    mph    mb.     in.     
-------------------------------------------------------------------------
 340   15:30   0.24   43.6    27   14.6   293    23.9   99999.0    0.00 
 340   15:40   0.22   42.2    24   17.6   295    29.2   99999.0    0.00 
 340   15:50   0.19   41.5    25   16.8   295    24.5   99999.0    0.00 
 340   16:00   0.16   41.4    26   15.1   296    24.5   99999.0    0.00 
 340   16:10   0.12   41.3    26   12.9   290    17.9   99999.0    0.00 
 340   16:20   0.07   39.9    27   14.3   294    22.1   99999.0    0.00 
 340   16:30   0.06   39.0    30   14.3   296    22.1   99999.0    0.00 
 340   16:40   0.03   38.2    30   12.4   296    17.9   99999.0    0.00 
 340   16:50   0.01   36.2    32   12.7   295    17.3   99999.0    0.00 
 340   17:00   0.00   34.2    38   12.4   297    19.7   99999.0    0.00 
 340   17:10   0.00   33.0    41   11.1   296    16.7   99999.0    0.00 
 340   17:20   0.00   32.5    40   12.2   296    17.9   99999.0    0.00 
 340   17:30   0.00   31.9    40   11.3   297    17.3   99999.0    0.00 
 340   17:40   0.00   31.6    40   11.7   297    18.5   99999.0    0.00 
 340   17:50   0.00   31.7    37   11.6   296    18.5   99999.0    0.00 
 340   18:00   0.00   31.6    35   11.5   298    19.1   99999.0    0.00 
 340   18:10   0.00   32.0    32   12.5   299    20.3   99999.0    0.00 
 340   18:20   0.00   32.2    30   13.4   298    21.5   99999.0    0.00 
 340   18:30   0.00   32.2    29   12.8   296    20.9   99999.0    0.00 
 340   18:40   0.00   32.0    29   12.5   300    18.5   99999.0    0.00 
 340   18:50   0.00   31.6    30   11.7   297    18.5   99999.0    0.00 
 340   19:00   0.00   31.3    29   11.3   297    16.1   99999.0    0.00 
 340   19:10   0.00   31.2    29   10.5   298    15.5   99999.0    0.00 
 340   19:20   0.00   31.3    28    9.9   304    14.9   99999.0    0.00 
 340   19:30   0.00   31.1    28   10.0   300    16.7   99999.0    0.00 
 340   19:40   0.00   30.5    29    7.1   308    11.9   99999.0    0.00 
 340   19:50   0.00   29.8    29    5.5   322     9.0   99999.0    0.00 
 340   20:00   0.00   29.3    29    5.5   314     9.0   99999.0    0.00 
 340   20:10   0.00   29.3    29    5.2   319     9.6   99999.0    0.00 
 340   20:20   0.00   29.2    29    5.8   324     9.6   99999.0    0.00 
 340   20:30   0.00   29.7    29    6.3   311    10.2   99999.0    0.00 
 340   20:40   0.00   29.5    30    6.0   313    12.5   99999.0    0.00 
 340   20:50   0.00   29.6    28    6.9   312    13.7   99999.0    0.00 
 340   21:00   0.00   30.0    28    6.5   318    10.8   99999.0    0.00 
 340   21:10   0.00   30.0    28    6.3   313    13.1   99999.0    0.00 
 340   21:20   0.00   29.7    29    6.4   306    11.3   99999.0    0.00 
 340   21:30   0.00   29.6    29    6.2   313    10.2   99999.0    0.00 
 340   21:40   0.00   29.4    29    5.4   308    10.2   99999.0    0.00 
 340   21:50   0.00   29.5    28    5.3   303    15.5   99999.0    0.00 
 340   22:00   0.00   29.3    28    3.8   300     7.2   99999.0    0.00 
 340   22:10   0.00   28.2    30    2.7   261     4.8   99999.0    0.00 
 340   22:20   0.00   27.3    32    1.8   242     3.0   99999.0    0.00 
 340   22:30   0.00   25.9    36    1.4   133     2.4   99999.0    0.00 
 340   22:40   0.00   24.9    38    1.2   122     2.4   99999.0    0.00 
 340   22:50   0.00   24.8    38    1.2   101     3.6   99999.0    0.00 
 340   23:00   0.00   25.6    38    1.5    53     3.6   99999.0    0.00 
 340   23:10   0.00   25.5    39    1.2    81     4.2   99999.0    0.00 
 340   23:20   0.00   25.5    39    2.3    40     4.8   99999.0    0.00 
 340   23:30   0.00   25.1    42    1.2   323     3.0   99999.0    0.00 
 340   23:40   0.00   24.0    46    2.4     7     4.8   99999.0    0.00 
 340   23:50   0.00   23.1    47    1.7   352     4.2   99999.0    0.00 
 341    0:00   0.00   22.5    50    1.2   358     3.6   99999.0    0.00 
 341    0:10   0.00   22.3    49    1.5   108     3.0   99999.0    0.00 
 341    0:20   0.00   22.4    50    3.0   345     6.6   99999.0    0.00 
 341    0:30   0.00   21.2    51    1.5   340     3.0   99999.0    0.00 
 341    0:40   0.00   20.3    53    1.6    12     5.4   99999.0    0.00 
 341    0:50   0.00   19.5    58    2.1     9     3.6   99999.0    0.00 
 341    1:00   0.00   20.6    57    0.4   321     2.4   99999.0    0.00 
 341    1:10   0.00   19.5    58    1.8   317     4.2   99999.0    0.00 
 341    1:20   0.00   18.9    61    1.6   104     4.2   99999.0    0.00 
 341    1:30   0.00   19.1    59    1.4   106     3.0   99999.0    0.00 
 341    1:40   0.00   19.3    59    1.9   329     4.2   99999.0    0.00 
 341    1:50   0.00   19.1    61    1.0    47     3.6   99999.0    0.00 
 341    2:00   0.00   19.4    62    1.4   328     3.6   99999.0    0.00 
 341    2:10   0.00   19.0    64    1.1   222     3.0   99999.0    0.00 
 341    2:20   0.00   18.1    64    0.9   266     2.4   99999.0    0.00 
 341    2:30   0.00   17.1    65    0.6   309     2.4   99999.0    0.00 
 341    2:40   0.00   17.2    66    0.5   270     2.4   99999.0    0.00 
 341    2:50   0.00   17.3    68    0.1    53     1.2   99999.0    0.00 
 341    3:00   0.00   17.7    69    0.6   121     2.4   99999.0    0.00 
 341    3:10   0.00   17.6    66    1.6   149     3.6   99999.0    0.00 
 341    3:20   0.00   16.6    66    0.4    58     2.4   99999.0    0.00 
 341    3:30   0.00   17.1    67    0.9    43     4.8   99999.0    0.00 
 341    3:40   0.00   17.6    67    2.0   301     5.4   99999.0    0.00 
 341    3:50   0.00   17.2    67    1.4   121     3.0   99999.0    0.00 
 341    4:00   0.00   15.6    73    2.2   303     4.2   99999.0    0.00 
 341    4:10   0.00   16.5    70    0.5   191     2.4   99999.0    0.00 
 341    4:20   0.00   16.4    70    1.4    69     3.0   99999.0    0.00 
 341    4:30   0.00   16.3    71    1.5   309     3.0   99999.0    0.00 
 341    4:40   0.00   16.9    70    0.7   101     3.0   99999.0    0.00 
 341    4:50   0.00   15.9    69    1.1   325     2.4   99999.0    0.00 
 341    5:00   0.00   14.3    74    0.8    10     2.4   99999.0    0.00 
 341    5:10   0.00   14.5    74    0.8   321     2.4   99999.0    0.00 
 341    5:20   0.00   14.8    73    1.2    25     4.2   99999.0    0.00 
 341    5:30   0.00   15.0    72    1.3   356     4.2   99999.0    0.00 
 341    5:40   0.00   13.7    73    1.0   112     3.0   99999.0    0.00 
 341    5:50   0.00   13.9    75    1.1   126     3.0   99999.0    0.00 
 341    6:00   0.00   14.3    74    0.3    66     2.4   99999.0    0.00 
 341    6:10   0.00   14.4    74    0.7   305     2.4   99999.0    0.00 
 341    6:20   0.00   14.0    76    0.1   256     1.2   99999.0    0.00 
 341    6:30   0.00   14.3    75    1.8    40     4.2   99999.0    0.00 
 341    6:40   0.00   14.4    75    0.8     5     3.6   99999.0    0.00 
 341    6:50   0.00   14.1    74    1.6   335     3.6   99999.0    0.00 
 341    7:00   0.00   12.8    78    1.1    97     3.0   99999.0    0.00 
 341    7:10   0.00   13.3    77    1.2    94     3.0   99999.0    0.00 
 341    7:20   0.01   13.2    77    0.6   332     2.4   99999.0    0.00 
 341    7:30   0.01   12.3    78    2.7   347     6.0   99999.0    0.00 
 341    7:40   0.03   12.3    79    1.0    55     3.6   99999.0    0.00 
 341    7:50   0.05   13.9    77    1.8    48     3.6   99999.0    0.00 
 341    8:00   0.05   13.6    75    1.3   333     3.6   99999.0    0.00 
 341    8:10   0.05   12.8    77    0.8   346     2.4   99999.0    0.00 
 341    8:20   0.06   13.5    77    1.1   295     3.6   99999.0    0.00 
 341    8:30   0.07   13.9    77    2.0   309     4.8   99999.0    0.00 
 341    8:40   0.09   15.0    75    2.8   303     5.4   99999.0    0.00 
 341    8:50   0.11   15.7    75    1.9    87     4.8   99999.0    0.00 
 341    9:00   0.13   17.1    72    2.1   280     4.2   99999.0    0.00 
 341    9:10   0.13   17.3    73    3.2    53     6.0   99999.0    0.00 
 341    9:20   0.13   18.8    72    2.2    71     4.8   99999.0    0.00 
 341    9:30   0.13   19.4    70    1.4   282     5.4   99999.0    0.00 
 341    9:40   0.15   20.7    69    1.8   110     3.6   99999.0    0.00 
 341    9:50   0.23   23.7    63    2.5   162     6.6   99999.0    0.00 
 341   10:00   0.17   25.3    61    3.5   333     6.6   99999.0    0.00 
 341   10:10   0.20   27.5    57    2.5   297     6.0   99999.0    0.00 
 341   10:20   0.18   29.0    54    1.2   263     3.0   99999.0    0.00 
 341   10:30   0.13   29.6    51    3.0   258     5.4   99999.0    0.00 
 341   10:40   0.20   27.7    57    2.3   140     5.4   99999.0    0.00 
 341   10:50   0.18   28.5    54    2.6   136     4.8   99999.0    0.00 
 341   11:00   0.20   29.2    53    3.1   223     6.0   99999.0    0.00 
 341   11:10   0.24   31.4    50    1.2   296     4.2   99999.0    0.00 
 341   11:20   0.20   30.6    55    6.1   186    11.9   99999.0    0.00 
 341   11:30   0.20   28.5    62    4.9   193    11.3   99999.0    0.00 
 341   11:40   0.20   29.6    58    1.9   221     4.8   99999.0    0.00 
 341   11:50   0.18   31.3    52    2.5   359     4.8   99999.0    0.00 
 341   12:00   0.20   32.8    47    2.8   311     5.4   99999.0    0.00 
 341   12:10   0.18   32.5    47    2.6   123     5.4   99999.0    0.00 
 341   12:20   0.20   31.6    47    3.8    42     7.8   99999.0    0.00 
 341   12:30   0.18   31.8    47    2.9   273     6.6   99999.0    0.00 
 341   12:40   0.19   31.0    49    5.3   242    10.2   99999.0    0.00 
 341   12:50   0.19   30.1    52    6.8   213    12.5   99999.0    0.00 
 341   13:00   0.21   29.8    52    6.2   218     9.6   99999.0    0.00 
 341   13:10   0.19   29.8    52    5.8   216    10.8   99999.0    0.00 
 341   13:20   0.19   29.7    53    7.0   194    12.5   99999.0    0.00 
 341   13:30   0.15   29.5    53    6.0   208    13.7   99999.0    0.00 
 341   13:40   0.15   29.5    53    5.6   208    11.3   99999.0    0.00 
 341   13:50   0.15   29.5    54    7.0   203    11.3   99999.0    0.00 
 341   14:00   0.16   29.6    53    5.2   203     9.6   99999.0    0.00 
 341   14:10   0.15   29.7    53    6.0   212    12.5   99999.0    0.00 
 341   14:20   0.16   29.9    54    3.9   218     7.8   99999.0    0.00 
 341   14:30   0.15   29.8    53    4.7   225     9.0   99999.0    0.00 
 341   14:40   0.13   30.1    53    3.5   229     7.8   99999.0    0.00 
 341   14:50   0.11   30.2    53    3.1   228     5.4   99999.0    0.00 
 341   15:00   0.09   30.4    52    2.2   237     4.8   99999.0    0.00 
 341   15:10   0.08   30.9    52    2.6   266     8.4   99999.0    0.00 
 341   15:20   0.06   30.6    54    6.2   280    10.2   99999.0    0.00 

Return to San Antonio, Valles Caldera graphs page.


Western Regional Climate Center,wrcc@dri.edu